sensor_id;sensor_type;location;lat;lon;timestamp;P1;durP1;ratioP1;P2;durP2;ratioP2
5977;SDS011;3015;51.390;12.256;2023-03-01T00:00:37;17.50;;;12.60;;
5977;SDS011;3015;51.390;12.256;2023-03-01T00:03:02;16.83;;;13.20;;
5977;SDS011;3015;51.390;12.256;2023-03-01T00:05:28;16.27;;;13.33;;
5977;SDS011;3015;51.390;12.256;2023-03-01T00:07:54;18.63;;;14.13;;
5977;SDS011;3015;51.390;12.256;2023-03-01T00:10:19;17.20;;;13.07;;
5977;SDS011;3015;51.390;12.256;2023-03-01T00:12:45;19.27;;;14.00;;
5977;SDS011;3015;51.390;12.256;2023-03-01T00:15:11;18.10;;;13.20;;
5977;SDS011;3015;51.390;12.256;2023-03-01T00:17:37;16.97;;;13.03;;
5977;SDS011;3015;51.390;12.256;2023-03-01T00:20:02;19.50;;;12.43;;
5977;SDS011;3015;51.390;12.256;2023-03-01T00:22:32;16.70;;;14.23;;
5977;SDS011;3015;51.390;12.256;2023-03-01T00:24:58;17.00;;;12.77;;
5977;SDS011;3015;51.390;12.256;2023-03-01T00:27:23;18.83;;;13.50;;
5977;SDS011;3015;51.390;12.256;2023-03-01T00:29:49;15.20;;;13.30;;
5977;SDS011;3015;51.390;12.256;2023-03-01T00:32:15;16.10;;;14.40;;
5977;SDS011;3015;51.390;12.256;2023-03-01T00:34:41;15.80;;;13.25;;
5977;SDS011;3015;51.390;12.256;2023-03-01T00:37:07;13.40;;;11.90;;
5977;SDS011;3015;51.390;12.256;2023-03-01T00:39:32;16.30;;;13.17;;
5977;SDS011;3015;51.390;12.256;2023-03-01T00:41:58;15.47;;;12.47;;
5977;SDS011;3015;51.390;12.256;2023-03-01T00:44:24;16.53;;;12.37;;
5977;SDS011;3015;51.390;12.256;2023-03-01T00:46:49;19.97;;;14.80;;
5977;SDS011;3015;51.390;12.256;2023-03-01T00:49:15;15.80;;;12.60;;
5977;SDS011;3015;51.390;12.256;2023-03-01T00:51:41;13.20;;;11.57;;
5977;SDS011;3015;51.390;12.256;2023-03-01T00:54:09;19.20;;;12.60;;
5977;SDS011;3015;51.390;12.256;2023-03-01T00:56:35;16.92;;;13.15;;
5977;SDS011;3015;51.390;12.256;2023-03-01T00:59:01;17.90;;;12.00;;
5977;SDS011;3015;51.390;12.256;2023-03-01T01:01:28;17.13;;;12.00;;
5977;SDS011;3015;51.390;12.256;2023-03-01T01:03:56;13.82;;;11.80;;
5977;SDS011;3015;51.390;12.256;2023-03-01T01:06:28;17.83;;;12.73;;
5977;SDS011;3015;51.390;12.256;2023-03-01T01:08:56;14.50;;;11.43;;
5977;SDS011;3015;51.390;12.256;2023-03-01T01:11:23;18.67;;;13.23;;
5977;SDS011;3015;51.390;12.256;2023-03-01T01:13:50;13.95;;;11.82;;
5977;SDS011;3015;51.390;12.256;2023-03-01T01:16:17;14.50;;;11.63;;
5977;SDS011;3015;51.390;12.256;2023-03-01T01:18:43;15.55;;;11.50;;
5977;SDS011;3015;51.390;12.256;2023-03-01T01:21:10;12.02;;;10.77;;
5977;SDS011;3015;51.390;12.256;2023-03-01T01:23:38;15.85;;;12.50;;
5977;SDS011;3015;51.390;12.256;2023-03-01T01:26:08;18.73;;;12.00;;
5977;SDS011;3015;51.390;12.256;2023-03-01T01:28:36;15.32;;;12.23;;
5977;SDS011;3015;51.390;12.256;2023-03-01T01:31:02;15.17;;;12.57;;
5977;SDS011;3015;51.390;12.256;2023-03-01T01:33:28;17.83;;;12.65;;
5977;SDS011;3015;51.390;12.256;2023-03-01T01:35:54;13.40;;;11.27;;
5977;SDS011;3015;51.390;12.256;2023-03-01T01:38:19;15.10;;;10.70;;
5977;SDS011;3015;51.390;12.256;2023-03-01T01:40:46;13.45;;;11.52;;
5977;SDS011;3015;51.390;12.256;2023-03-01T01:46:32;12.65;;;11.40;;
5977;SDS011;3015;51.390;12.256;2023-03-01T01:49:05;12.57;;;11.13;;
5977;SDS011;3015;51.390;12.256;2023-03-01T01:51:44;14.48;;;10.10;;
5977;SDS011;3015;51.390;12.256;2023-03-01T01:57:09;15.27;;;11.90;;
5977;SDS011;3015;51.390;12.256;2023-03-01T01:59:38;14.82;;;11.93;;
5977;SDS011;3015;51.390;12.256;2023-03-01T02:02:06;16.63;;;12.05;;
5977;SDS011;3015;51.390;12.256;2023-03-01T02:04:32;15.30;;;11.53;;
5977;SDS011;3015;51.390;12.256;2023-03-01T02:07:01;15.30;;;11.73;;
5977;SDS011;3015;51.390;12.256;2023-03-01T02:09:31;15.85;;;11.55;;
5977;SDS011;3015;51.390;12.256;2023-03-01T02:11:58;19.30;;;12.85;;
5977;SDS011;3015;51.390;12.256;2023-03-01T02:14:24;16.65;;;12.73;;
5977;SDS011;3015;51.390;12.256;2023-03-01T02:16:51;15.35;;;11.68;;
5977;SDS011;3015;51.390;12.256;2023-03-01T02:19:40;13.27;;;10.90;;
5977;SDS011;3015;51.390;12.256;2023-03-01T02:22:34;14.60;;;11.00;;
5977;SDS011;3015;51.390;12.256;2023-03-01T02:28:04;16.58;;;11.85;;
5977;SDS011;3015;51.390;12.256;2023-03-01T02:30:40;14.10;;;10.75;;
5977;SDS011;3015;51.390;12.256;2023-03-01T02:33:27;17.65;;;10.93;;
5977;SDS011;3015;51.390;12.256;2023-03-01T02:35:57;14.55;;;11.45;;
5977;SDS011;3015;51.390;12.256;2023-03-01T02:38:25;15.10;;;13.48;;
5977;SDS011;3015;51.390;12.256;2023-03-01T02:44:13;13.05;;;11.00;;
5977;SDS011;3015;51.390;12.256;2023-03-01T02:46:52;16.45;;;12.00;;
5977;SDS011;3015;51.390;12.256;2023-03-01T02:49:22;12.57;;;10.77;;
5977;SDS011;3015;51.390;12.256;2023-03-01T02:52:01;15.93;;;11.63;;
5977;SDS011;3015;51.390;12.256;2023-03-01T02:54:50;12.30;;;10.50;;
5977;SDS011;3015;51.390;12.256;2023-03-01T02:57:28;15.70;;;11.45;;
5977;SDS011;3015;51.390;12.256;2023-03-01T02:59:57;16.13;;;11.75;;
5977;SDS011;3015;51.390;12.256;2023-03-01T03:02:27;15.23;;;11.63;;
5977;SDS011;3015;51.390;12.256;2023-03-01T03:05:08;11.65;;;10.45;;
5977;SDS011;3015;51.390;12.256;2023-03-01T03:07:38;14.07;;;12.00;;
5977;SDS011;3015;51.390;12.256;2023-03-01T03:10:07;16.50;;;10.95;;
5977;SDS011;3015;51.390;12.256;2023-03-01T03:12:36;13.05;;;10.88;;
5977;SDS011;3015;51.390;12.256;2023-03-01T03:15:02;16.13;;;11.02;;
5977;SDS011;3015;51.390;12.256;2023-03-01T03:17:33;16.73;;;11.88;;
5977;SDS011;3015;51.390;12.256;2023-03-01T03:20:00;14.82;;;11.32;;
5977;SDS011;3015;51.390;12.256;2023-03-01T03:22:28;14.77;;;11.20;;
5977;SDS011;3015;51.390;12.256;2023-03-01T03:24:53;12.53;;;11.20;;
5977;SDS011;3015;51.390;12.256;2023-03-01T03:27:19;21.43;;;13.63;;
5977;SDS011;3015;51.390;12.256;2023-03-01T03:32:10;12.77;;;11.50;;
5977;SDS011;3015;51.390;12.256;2023-03-01T03:34:35;18.63;;;10.97;;
5977;SDS011;3015;51.390;12.256;2023-03-01T03:37:01;12.60;;;10.80;;
5977;SDS011;3015;51.390;12.256;2023-03-01T03:39:26;13.00;;;10.60;;
5977;SDS011;3015;51.390;12.256;2023-03-01T03:41:53;15.93;;;11.50;;
5977;SDS011;3015;51.390;12.256;2023-03-01T03:44:19;16.27;;;11.13;;
5977;SDS011;3015;51.390;12.256;2023-03-01T03:46:45;11.45;;;10.25;;
5977;SDS011;3015;51.390;12.256;2023-03-01T03:49:10;13.73;;;11.53;;
5977;SDS011;3015;51.390;12.256;2023-03-01T03:51:36;11.30;;;10.10;;
5977;SDS011;3015;51.390;12.256;2023-03-01T03:54:02;16.10;;;11.93;;
5977;SDS011;3015;51.390;12.256;2023-03-01T03:56:27;17.20;;;11.73;;
5977;SDS011;3015;51.390;12.256;2023-03-01T03:58:53;11.73;;;10.10;;
5977;SDS011;3015;51.390;12.256;2023-03-01T04:01:18;14.80;;;11.30;;
5977;SDS011;3015;51.390;12.256;2023-03-01T04:03:44;18.13;;;11.40;;
5977;SDS011;3015;51.390;12.256;2023-03-01T04:06:13;13.35;;;10.90;;
5977;SDS011;3015;51.390;12.256;2023-03-01T04:08:39;12.68;;;10.77;;
5977;SDS011;3015;51.390;12.256;2023-03-01T04:11:06;12.55;;;10.45;;
5977;SDS011;3015;51.390;12.256;2023-03-01T04:13:51;15.23;;;10.52;;
5977;SDS011;3015;51.390;12.256;2023-03-01T04:16:17;13.68;;;11.07;;
5977;SDS011;3015;51.390;12.256;2023-03-01T04:18:43;15.90;;;11.57;;
5977;SDS011;3015;51.390;12.256;2023-03-01T04:21:09;14.52;;;11.00;;
5977;SDS011;3015;51.390;12.256;2023-03-01T04:23:36;17.10;;;11.50;;
5977;SDS011;3015;51.390;12.256;2023-03-01T04:26:02;15.32;;;10.45;;
5977;SDS011;3015;51.390;12.256;2023-03-01T04:28:35;17.98;;;11.52;;
5977;SDS011;3015;51.390;12.256;2023-03-01T04:31:04;12.10;;;10.35;;
5977;SDS011;3015;51.390;12.256;2023-03-01T04:33:38;14.48;;;10.82;;
5977;SDS011;3015;51.390;12.256;2023-03-01T04:36:05;18.30;;;11.00;;
5977;SDS011;3015;51.390;12.256;2023-03-01T04:38:33;16.80;;;11.35;;
5977;SDS011;3015;51.390;12.256;2023-03-01T04:41:01;15.40;;;10.85;;
5977;SDS011;3015;51.390;12.256;2023-03-01T04:43:28;12.55;;;9.38;;
5977;SDS011;3015;51.390;12.256;2023-03-01T04:45:53;14.27;;;11.23;;
5977;SDS011;3015;51.390;12.256;2023-03-01T04:48:19;13.77;;;11.70;;
5977;SDS011;3015;51.390;12.256;2023-03-01T04:50:45;19.70;;;12.50;;
5977;SDS011;3015;51.390;12.256;2023-03-01T04:53:10;14.93;;;10.27;;
5977;SDS011;3015;51.390;12.256;2023-03-01T04:55:36;18.07;;;11.37;;
5977;SDS011;3015;51.390;12.256;2023-03-01T04:58:01;16.80;;;11.23;;
5977;SDS011;3015;51.390;12.256;2023-03-01T05:00:27;13.00;;;10.20;;
5977;SDS011;3015;51.390;12.256;2023-03-01T05:05:24;12.98;;;11.02;;
5977;SDS011;3015;51.390;12.256;2023-03-01T05:07:56;12.68;;;10.68;;
5977;SDS011;3015;51.390;12.256;2023-03-01T05:10:24;13.85;;;10.00;;
5977;SDS011;3015;51.390;12.256;2023-03-01T05:12:51;11.23;;;9.10;;
5977;SDS011;3015;51.390;12.256;2023-03-01T05:15:18;15.25;;;10.82;;
5977;SDS011;3015;51.390;12.256;2023-03-01T05:17:48;16.42;;;11.00;;
5977;SDS011;3015;51.390;12.256;2023-03-01T05:20:14;12.48;;;10.00;;
5977;SDS011;3015;51.390;12.256;2023-03-01T05:22:40;14.03;;;10.97;;
5977;SDS011;3015;51.390;12.256;2023-03-01T05:25:06;13.40;;;10.17;;
5977;SDS011;3015;51.390;12.256;2023-03-01T05:27:32;17.50;;;10.98;;
5977;SDS011;3015;51.390;12.256;2023-03-01T05:29:58;14.90;;;11.20;;
5977;SDS011;3015;51.390;12.256;2023-03-01T05:32:23;14.17;;;11.10;;
5977;SDS011;3015;51.390;12.256;2023-03-01T05:34:49;12.47;;;10.93;;
5977;SDS011;3015;51.390;12.256;2023-03-01T05:37:17;18.10;;;12.38;;
5977;SDS011;3015;51.390;12.256;2023-03-01T05:39:42;12.33;;;10.83;;
5977;SDS011;3015;51.390;12.256;2023-03-01T05:42:08;12.93;;;11.53;;
5977;SDS011;3015;51.390;12.256;2023-03-01T05:44:36;11.27;;;10.15;;
5977;SDS011;3015;51.390;12.256;2023-03-01T05:47:02;14.97;;;11.07;;
5977;SDS011;3015;51.390;12.256;2023-03-01T05:49:27;11.47;;;10.27;;
5977;SDS011;3015;51.390;12.256;2023-03-01T05:51:53;16.40;;;11.40;;
5977;SDS011;3015;51.390;12.256;2023-03-01T05:54:20;13.13;;;10.70;;
5977;SDS011;3015;51.390;12.256;2023-03-01T05:56:46;13.07;;;10.40;;
5977;SDS011;3015;51.390;12.256;2023-03-01T05:59:12;12.93;;;10.20;;
5977;SDS011;3015;51.390;12.256;2023-03-01T06:01:39;12.25;;;9.95;;
5977;SDS011;3015;51.390;12.256;2023-03-01T06:04:04;13.13;;;10.67;;
5977;SDS011;3015;51.390;12.256;2023-03-01T06:06:33;12.80;;;10.13;;
5977;SDS011;3015;51.390;12.256;2023-03-01T06:08:59;13.25;;;11.82;;
5977;SDS011;3015;51.390;12.256;2023-03-01T06:11:25;20.17;;;11.87;;
5977;SDS011;3015;51.390;12.256;2023-03-01T06:13:50;16.60;;;10.70;;
5977;SDS011;3015;51.390;12.256;2023-03-01T06:16:16;14.37;;;11.60;;
5977;SDS011;3015;51.390;12.256;2023-03-01T06:18:41;16.37;;;11.37;;
5977;SDS011;3015;51.390;12.256;2023-03-01T06:21:07;13.17;;;11.67;;
5977;SDS011;3015;51.390;12.256;2023-03-01T06:23:33;14.77;;;10.35;;
5977;SDS011;3015;51.390;12.256;2023-03-01T06:25:59;14.18;;;11.60;;
5977;SDS011;3015;51.390;12.256;2023-03-01T06:28:29;24.40;;;15.23;;
5977;SDS011;3015;51.390;12.256;2023-03-01T06:30:55;18.87;;;13.00;;
5977;SDS011;3015;51.390;12.256;2023-03-01T06:33:20;15.43;;;11.33;;
5977;SDS011;3015;51.390;12.256;2023-03-01T06:35:48;15.25;;;12.90;;
5977;SDS011;3015;51.390;12.256;2023-03-01T06:38:13;14.90;;;11.30;;
5977;SDS011;3015;51.390;12.256;2023-03-01T06:40:40;13.63;;;12.20;;
5977;SDS011;3015;51.390;12.256;2023-03-01T06:43:06;17.42;;;11.75;;
5977;SDS011;3015;51.390;12.256;2023-03-01T06:45:32;13.48;;;10.77;;
5977;SDS011;3015;51.390;12.256;2023-03-01T06:48:02;13.77;;;11.37;;
5977;SDS011;3015;51.390;12.256;2023-03-01T06:50:31;15.70;;;12.20;;
5977;SDS011;3015;51.390;12.256;2023-03-01T06:52:58;14.40;;;11.73;;
5977;SDS011;3015;51.390;12.256;2023-03-01T06:55:24;15.97;;;12.67;;
5977;SDS011;3015;51.390;12.256;2023-03-01T06:57:53;16.90;;;13.03;;
5977;SDS011;3015;51.390;12.256;2023-03-01T07:00:27;14.75;;;12.32;;
5977;SDS011;3015;51.390;12.256;2023-03-01T07:02:52;18.73;;;13.53;;
5977;SDS011;3015;51.390;12.256;2023-03-01T07:05:18;15.27;;;11.70;;
5977;SDS011;3015;51.390;12.256;2023-03-01T07:07:44;16.90;;;11.93;;
5977;SDS011;3015;51.390;12.256;2023-03-01T07:10:10;20.70;;;13.07;;
5977;SDS011;3015;51.390;12.256;2023-03-01T07:12:36;14.10;;;12.13;;
5977;SDS011;3015;51.390;12.256;2023-03-01T07:15:02;14.17;;;12.50;;
5977;SDS011;3015;51.390;12.256;2023-03-01T07:17:28;19.10;;;14.10;;
5977;SDS011;3015;51.390;12.256;2023-03-01T07:19:54;16.00;;;12.30;;
5977;SDS011;3015;51.390;12.256;2023-03-01T07:22:19;14.00;;;12.03;;
5977;SDS011;3015;51.390;12.256;2023-03-01T07:24:45;16.17;;;13.50;;
5977;SDS011;3015;51.390;12.256;2023-03-01T07:27:11;19.70;;;14.53;;
5977;SDS011;3015;51.390;12.256;2023-03-01T07:29:36;15.60;;;13.27;;
5977;SDS011;3015;51.390;12.256;2023-03-01T07:32:03;20.73;;;13.97;;
5977;SDS011;3015;51.390;12.256;2023-03-01T07:34:29;20.35;;;14.20;;
5977;SDS011;3015;51.390;12.256;2023-03-01T07:36:55;16.47;;;14.70;;
5977;SDS011;3015;51.390;12.256;2023-03-01T07:39:20;14.73;;;13.10;;
5977;SDS011;3015;51.390;12.256;2023-03-01T07:41:48;16.00;;;13.10;;
5977;SDS011;3015;51.390;12.256;2023-03-01T07:44:14;16.98;;;12.93;;
5977;SDS011;3015;51.390;12.256;2023-03-01T07:46:40;18.17;;;13.30;;
5977;SDS011;3015;51.390;12.256;2023-03-01T07:49:06;16.87;;;14.33;;
5977;SDS011;3015;51.390;12.256;2023-03-01T07:51:31;20.90;;;13.50;;
5977;SDS011;3015;51.390;12.256;2023-03-01T07:53:57;15.07;;;13.10;;
5977;SDS011;3015;51.390;12.256;2023-03-01T07:56:23;22.43;;;15.07;;
5977;SDS011;3015;51.390;12.256;2023-03-01T07:58:48;19.40;;;14.37;;
5977;SDS011;3015;51.390;12.256;2023-03-01T08:01:15;17.03;;;13.70;;
5977;SDS011;3015;51.390;12.256;2023-03-01T08:03:43;20.23;;;14.88;;
5977;SDS011;3015;51.390;12.256;2023-03-01T08:06:09;17.97;;;13.23;;
5977;SDS011;3015;51.390;12.256;2023-03-01T08:08:36;15.40;;;13.80;;
5977;SDS011;3015;51.390;12.256;2023-03-01T08:11:03;16.23;;;14.55;;
5977;SDS011;3015;51.390;12.256;2023-03-01T08:13:30;19.17;;;15.40;;
5977;SDS011;3015;51.390;12.256;2023-03-01T08:16:05;20.37;;;15.40;;
5977;SDS011;3015;51.390;12.256;2023-03-01T08:18:33;21.20;;;15.50;;
5977;SDS011;3015;51.390;12.256;2023-03-01T08:21:03;19.80;;;15.15;;
5977;SDS011;3015;51.390;12.256;2023-03-01T08:23:47;18.92;;;13.85;;
5977;SDS011;3015;51.390;12.256;2023-03-01T08:26:14;14.87;;;13.17;;
5977;SDS011;3015;51.390;12.256;2023-03-01T08:28:41;14.80;;;13.30;;
5977;SDS011;3015;51.390;12.256;2023-03-01T08:31:15;16.30;;;11.60;;
5977;SDS011;3015;51.390;12.256;2023-03-01T08:33:44;15.60;;;12.88;;
5977;SDS011;3015;51.390;12.256;2023-03-01T08:36:15;14.65;;;13.02;;
5977;SDS011;3015;51.390;12.256;2023-03-01T08:38:41;13.57;;;12.18;;
5977;SDS011;3015;51.390;12.256;2023-03-01T08:41:07;16.70;;;13.23;;
5977;SDS011;3015;51.390;12.256;2023-03-01T08:43:33;17.20;;;13.37;;
5977;SDS011;3015;51.390;12.256;2023-03-01T08:45:58;16.67;;;14.20;;
5977;SDS011;3015;51.390;12.256;2023-03-01T08:48:24;14.70;;;13.20;;
5977;SDS011;3015;51.390;12.256;2023-03-01T08:50:52;14.67;;;13.17;;
5977;SDS011;3015;51.390;12.256;2023-03-01T08:53:17;15.23;;;12.73;;
5977;SDS011;3015;51.390;12.256;2023-03-01T08:55:43;18.13;;;13.77;;
5977;SDS011;3015;51.390;12.256;2023-03-01T08:58:09;19.70;;;13.30;;
5977;SDS011;3015;51.390;12.256;2023-03-01T09:00:34;14.00;;;12.77;;
5977;SDS011;3015;51.390;12.256;2023-03-01T09:03:00;14.90;;;13.50;;
5977;SDS011;3015;51.390;12.256;2023-03-01T09:05:26;14.57;;;13.13;;
5977;SDS011;3015;51.390;12.256;2023-03-01T09:07:51;15.67;;;14.10;;
5977;SDS011;3015;51.390;12.256;2023-03-01T09:10:17;14.70;;;13.23;;
5977;SDS011;3015;51.390;12.256;2023-03-01T09:12:43;16.53;;;14.90;;
5977;SDS011;3015;51.390;12.256;2023-03-01T09:15:09;16.87;;;15.33;;
5977;SDS011;3015;51.390;12.256;2023-03-01T09:17:35;17.33;;;15.63;;
5977;SDS011;3015;51.390;12.256;2023-03-01T09:20:00;15.63;;;14.20;;
5977;SDS011;3015;51.390;12.256;2023-03-01T09:22:26;16.83;;;15.10;;
5977;SDS011;3015;51.390;12.256;2023-03-01T09:24:51;15.83;;;14.23;;
5977;SDS011;3015;51.390;12.256;2023-03-01T09:27:17;17.73;;;15.80;;
5977;SDS011;3015;51.390;12.256;2023-03-01T09:29:44;18.07;;;16.10;;
5977;SDS011;3015;51.390;12.256;2023-03-01T09:32:10;16.73;;;14.93;;
5977;SDS011;3015;51.390;12.256;2023-03-01T09:34:36;17.00;;;15.20;;
5977;SDS011;3015;51.390;12.256;2023-03-01T09:37:20;17.27;;;15.70;;
5977;SDS011;3015;51.390;12.256;2023-03-01T09:39:46;18.97;;;14.90;;
5977;SDS011;3015;51.390;12.256;2023-03-01T09:42:11;19.80;;;17.90;;
5977;SDS011;3015;51.390;12.256;2023-03-01T09:47:12;19.67;;;17.53;;
5977;SDS011;3015;51.390;12.256;2023-03-01T09:49:44;18.23;;;16.37;;
5977;SDS011;3015;51.390;12.256;2023-03-01T09:52:28;17.23;;;15.57;;
5977;SDS011;3015;51.390;12.256;2023-03-01T09:54:55;19.93;;;16.70;;
5977;SDS011;3015;51.390;12.256;2023-03-01T09:57:33;19.07;;;17.10;;
5977;SDS011;3015;51.390;12.256;2023-03-01T10:02:46;20.90;;;17.80;;
5977;SDS011;3015;51.390;12.256;2023-03-01T10:08:06;19.03;;;17.10;;
5977;SDS011;3015;51.390;12.256;2023-03-01T10:10:54;18.67;;;16.77;;
5977;SDS011;3015;51.390;12.256;2023-03-01T10:13:28;20.03;;;18.13;;
5977;SDS011;3015;51.390;12.256;2023-03-01T10:16:26;19.73;;;17.10;;
5977;SDS011;3015;51.390;12.256;2023-03-01T10:18:53;19.13;;;17.33;;
5977;SDS011;3015;51.390;12.256;2023-03-01T10:21:25;20.67;;;18.57;;
5977;SDS011;3015;51.390;12.256;2023-03-01T10:23:57;19.47;;;16.83;;
5977;SDS011;3015;51.390;12.256;2023-03-01T10:32:37;21.20;;;19.00;;
5977;SDS011;3015;51.390;12.256;2023-03-01T10:37:55;22.30;;;18.90;;
5977;SDS011;3015;51.390;12.256;2023-03-01T10:40:54;21.50;;;18.80;;
5977;SDS011;3015;51.390;12.256;2023-03-01T10:43:23;22.57;;;19.30;;
5977;SDS011;3015;51.390;12.256;2023-03-01T10:45:51;21.37;;;19.17;;
5977;SDS011;3015;51.390;12.256;2023-03-01T10:48:19;20.63;;;18.53;;
5977;SDS011;3015;51.390;12.256;2023-03-01T10:55:58;20.57;;;18.80;;
5977;SDS011;3015;51.390;12.256;2023-03-01T10:58:29;23.47;;;19.83;;
5977;SDS011;3015;51.390;12.256;2023-03-01T11:01:24;20.53;;;18.30;;
5977;SDS011;3015;51.390;12.256;2023-03-01T11:03:54;20.50;;;18.40;;
5977;SDS011;3015;51.390;12.256;2023-03-01T11:06:31;21.23;;;19.13;;
5977;SDS011;3015;51.390;12.256;2023-03-01T11:09:20;19.80;;;18.00;;
5977;SDS011;3015;51.390;12.256;2023-03-01T11:11:54;18.80;;;17.00;;
5977;SDS011;3015;51.390;12.256;2023-03-01T11:14:22;22.43;;;20.13;;
5977;SDS011;3015;51.390;12.256;2023-03-01T11:17:04;18.00;;;16.30;;
5977;SDS011;3015;51.390;12.256;2023-03-01T11:19:37;20.83;;;17.87;;
5977;SDS011;3015;51.390;12.256;2023-03-01T11:22:04;18.97;;;17.07;;
5977;SDS011;3015;51.390;12.256;2023-03-01T11:24:46;17.43;;;15.83;;
5977;SDS011;3015;51.390;12.256;2023-03-01T11:30:00;18.90;;;17.07;;
5977;SDS011;3015;51.390;12.256;2023-03-01T11:32:35;17.47;;;15.90;;
5977;SDS011;3015;51.390;12.256;2023-03-01T11:35:24;18.60;;;16.90;;
5977;SDS011;3015;51.390;12.256;2023-03-01T11:40:28;19.03;;;17.00;;
5977;SDS011;3015;51.390;12.256;2023-03-01T11:52:28;18.50;;;16.50;;
5977;SDS011;3015;51.390;12.256;2023-03-01T11:57:27;16.10;;;14.50;;
5977;SDS011;3015;51.390;12.256;2023-03-01T12:00:13;17.03;;;15.27;;
5977;SDS011;3015;51.390;12.256;2023-03-01T12:08:27;13.93;;;12.63;;
5977;SDS011;3015;51.390;12.256;2023-03-01T12:13:55;16.13;;;11.80;;
5977;SDS011;3015;51.390;12.256;2023-03-01T12:16:41;14.53;;;11.83;;
5977;SDS011;3015;51.390;12.256;2023-03-01T12:22:07;14.67;;;13.10;;
5977;SDS011;3015;51.390;12.256;2023-03-01T12:49:15;16.90;;;15.13;;
5977;SDS011;3015;51.390;12.256;2023-03-01T12:51:51;16.90;;;14.17;;
5977;SDS011;3015;51.390;12.256;2023-03-01T12:54:36;17.93;;;16.17;;
5977;SDS011;3015;51.390;12.256;2023-03-01T12:57:23;16.07;;;14.50;;
5977;SDS011;3015;51.390;12.256;2023-03-01T13:00:02;17.17;;;15.50;;
5977;SDS011;3015;51.390;12.256;2023-03-01T13:03:31;15.87;;;14.10;;
5977;SDS011;3015;51.390;12.256;2023-03-01T13:06:09;14.97;;;13.47;;
5977;SDS011;3015;51.390;12.256;2023-03-01T13:08:58;15.37;;;14.07;;
5977;SDS011;3015;51.390;12.256;2023-03-01T13:11:40;16.27;;;14.83;;
5977;SDS011;3015;51.390;12.256;2023-03-01T13:16:54;13.83;;;12.53;;
5977;SDS011;3015;51.390;12.256;2023-03-01T13:21:48;14.73;;;13.40;;
5977;SDS011;3015;51.390;12.256;2023-03-01T13:24:35;14.80;;;13.40;;
5977;SDS011;3015;51.390;12.256;2023-03-01T13:32:25;15.30;;;13.77;;
5977;SDS011;3015;51.390;12.256;2023-03-01T13:34:54;13.50;;;12.20;;
5977;SDS011;3015;51.390;12.256;2023-03-01T13:37:25;12.80;;;11.60;;
5977;SDS011;3015;51.390;12.256;2023-03-01T13:39:54;13.27;;;11.90;;
5977;SDS011;3015;51.390;12.256;2023-03-01T13:42:39;12.27;;;11.27;;
5977;SDS011;3015;51.390;12.256;2023-03-01T13:48:16;12.40;;;11.23;;
5977;SDS011;3015;51.390;12.256;2023-03-01T13:50:58;12.03;;;10.77;;
5977;SDS011;3015;51.390;12.256;2023-03-01T13:53:29;13.17;;;11.67;;
5977;SDS011;3015;51.390;12.256;2023-03-01T13:56:00;12.63;;;11.33;;
5977;SDS011;3015;51.390;12.256;2023-03-01T13:58:29;11.80;;;10.70;;
5977;SDS011;3015;51.390;12.256;2023-03-01T14:00:57;11.93;;;10.77;;
5977;SDS011;3015;51.390;12.256;2023-03-01T14:03:25;12.43;;;11.20;;
5977;SDS011;3015;51.390;12.256;2023-03-01T14:06:01;13.60;;;12.20;;
5977;SDS011;3015;51.390;12.256;2023-03-01T14:08:28;11.27;;;10.07;;
5977;SDS011;3015;51.390;12.256;2023-03-01T14:13:46;12.70;;;11.50;;
5977;SDS011;3015;51.390;12.256;2023-03-01T14:19:17;10.97;;;9.97;;
5977;SDS011;3015;51.390;12.256;2023-03-01T14:21:49;11.43;;;9.90;;
5977;SDS011;3015;51.390;12.256;2023-03-01T14:24:46;10.10;;;9.20;;
5977;SDS011;3015;51.390;12.256;2023-03-01T14:27:35;10.63;;;9.67;;
5977;SDS011;3015;51.390;12.256;2023-03-01T14:30:10;10.60;;;9.60;;
5977;SDS011;3015;51.390;12.256;2023-03-01T14:32:42;10.77;;;9.80;;
5977;SDS011;3015;51.390;12.256;2023-03-01T14:35:21;10.73;;;9.73;;
5977;SDS011;3015;51.390;12.256;2023-03-01T14:37:48;10.20;;;9.17;;
5977;SDS011;3015;51.390;12.256;2023-03-01T14:40:28;10.13;;;9.10;;
5977;SDS011;3015;51.390;12.256;2023-03-01T14:42:58;11.37;;;10.27;;
5977;SDS011;3015;51.390;12.256;2023-03-01T14:45:27;10.87;;;9.87;;
5977;SDS011;3015;51.390;12.256;2023-03-01T14:47:55;9.83;;;8.93;;
5977;SDS011;3015;51.390;12.256;2023-03-01T14:50:26;10.90;;;9.90;;
5977;SDS011;3015;51.390;12.256;2023-03-01T14:52:58;10.07;;;9.13;;
5977;SDS011;3015;51.390;12.256;2023-03-01T14:58:02;10.53;;;9.53;;
5977;SDS011;3015;51.390;12.256;2023-03-01T15:00:30;10.87;;;9.77;;
5977;SDS011;3015;51.390;12.256;2023-03-01T15:02:58;11.13;;;9.93;;
5977;SDS011;3015;51.390;12.256;2023-03-01T15:05:31;9.10;;;7.80;;
5977;SDS011;3015;51.390;12.256;2023-03-01T15:07:58;9.60;;;8.80;;
5977;SDS011;3015;51.390;12.256;2023-03-01T15:10:27;9.83;;;9.10;;
5977;SDS011;3015;51.390;12.256;2023-03-01T15:12:58;9.57;;;8.30;;
5977;SDS011;3015;51.390;12.256;2023-03-01T15:15:42;9.10;;;7.60;;
5977;SDS011;3015;51.390;12.256;2023-03-01T15:18:27;8.80;;;8.07;;
5977;SDS011;3015;51.390;12.256;2023-03-01T15:20:54;8.60;;;7.70;;
5977;SDS011;3015;51.390;12.256;2023-03-01T15:23:24;8.37;;;7.60;;
5977;SDS011;3015;51.390;12.256;2023-03-01T15:25:52;7.50;;;6.77;;
5977;SDS011;3015;51.390;12.256;2023-03-01T15:28:29;9.10;;;8.20;;
5977;SDS011;3015;51.390;12.256;2023-03-01T15:30:59;8.33;;;7.53;;
5977;SDS011;3015;51.390;12.256;2023-03-01T15:33:30;8.63;;;7.80;;
5977;SDS011;3015;51.390;12.256;2023-03-01T15:36:02;8.50;;;7.80;;
5977;SDS011;3015;51.390;12.256;2023-03-01T15:41:23;8.65;;;7.72;;
5977;SDS011;3015;51.390;12.256;2023-03-01T15:43:50;10.60;;;8.20;;
5977;SDS011;3015;51.390;12.256;2023-03-01T15:46:26;10.73;;;8.32;;
5977;SDS011;3015;51.390;12.256;2023-03-01T15:48:54;8.10;;;7.45;;
5977;SDS011;3015;51.390;12.256;2023-03-01T15:51:29;8.30;;;7.50;;
5977;SDS011;3015;51.390;12.256;2023-03-01T15:53:55;9.15;;;6.53;;
5977;SDS011;3015;51.390;12.256;2023-03-01T15:56:22;7.63;;;6.90;;
5977;SDS011;3015;51.390;12.256;2023-03-01T15:58:48;8.40;;;7.60;;
5977;SDS011;3015;51.390;12.256;2023-03-01T16:01:15;7.53;;;6.60;;
5977;SDS011;3015;51.390;12.256;2023-03-01T16:03:44;7.95;;;7.07;;
5977;SDS011;3015;51.390;12.256;2023-03-01T16:06:11;7.68;;;6.90;;
5977;SDS011;3015;51.390;12.256;2023-03-01T16:08:37;7.93;;;7.18;;
5977;SDS011;3015;51.390;12.256;2023-03-01T16:11:04;8.38;;;7.45;;
5977;SDS011;3015;51.390;12.256;2023-03-01T16:13:31;7.55;;;6.85;;
5977;SDS011;3015;51.390;12.256;2023-03-01T16:15:57;7.80;;;7.13;;
5977;SDS011;3015;51.390;12.256;2023-03-01T16:18:24;8.20;;;7.25;;
5977;SDS011;3015;51.390;12.256;2023-03-01T16:20:50;6.80;;;6.20;;
5977;SDS011;3015;51.390;12.256;2023-03-01T16:23:15;9.57;;;7.40;;
5977;SDS011;3015;51.390;12.256;2023-03-01T16:25:41;7.93;;;7.13;;
5977;SDS011;3015;51.390;12.256;2023-03-01T16:28:07;8.50;;;7.17;;
5977;SDS011;3015;51.390;12.256;2023-03-01T16:30:38;8.65;;;7.85;;
5977;SDS011;3015;51.390;12.256;2023-03-01T16:33:05;8.43;;;7.20;;
5977;SDS011;3015;51.390;12.256;2023-03-01T16:35:32;10.90;;;7.13;;
5977;SDS011;3015;51.390;12.256;2023-03-01T16:37:59;8.95;;;8.05;;
5977;SDS011;3015;51.390;12.256;2023-03-01T16:40:25;8.05;;;7.35;;
5977;SDS011;3015;51.390;12.256;2023-03-01T16:42:53;8.80;;;7.22;;
5977;SDS011;3015;51.390;12.256;2023-03-01T16:45:25;10.20;;;8.18;;
5977;SDS011;3015;51.390;12.256;2023-03-01T16:47:52;8.80;;;7.90;;
5977;SDS011;3015;51.390;12.256;2023-03-01T16:50:18;8.38;;;7.57;;